Accueil
METAR-TAF:

METAR-TAF

Aéroports :

Cervia, Italie

latitude: 44-13N, longitude: 012-18E, altitude: 6 m

Observation

Le bulletin a été fait il y a 2 heures et 11 minutes, à 11:55 UTC
Vent 5 kt de est
Température 23°C
Humidité 41%
Pression 1017 hPa
Visibilité 10 km ou plus
Quelques nuages à une hauteur de 4000 ft

METAR: LIPC 011155Z 08005KT 9999 FEW040 23/09 Q1017 RMK FEW VIS MIN 9999 WIND THR11 16005KT WIND THR29 12007KT BLU

Heure: 16:06 (14:06 UTC)

Prévision

Le bulletin a été fait il y a 3 heures et 6 minutes, à 11:00 UTC
Prévision valable du 01 à 12 UTC au 01 à 21 UTC
Vent 8 kt de est
Visibilité 10 km ou plus
pas de nuages en-dessous de 1500 mètres et pas de cumulonimbus.

TAF: LIPC 011100Z 0112/0121 10008KT CAVOK

Observations et prévisions météorologiques de plus de 4000 aéroports (messages METAR et TAF).

Les stations disponibles sont représentées par des disques jaunes et rouges sur la carte.

Passer la souris dessus pour voir le nom de la station.

Cliquer dessus pour voir les observations et prévisions météorologiques.

Pour changer de carte: cliquez sur les boutons verts avec une croix noire pour zoomer, sur le bouton vert avec un tiret pour effectuer un zoom arrière, ou sur les flèches vertes pour les cartes adjacentes.


METAR-TAF: